sensor_id;sensor_type;location;lat;lon;timestamp;temperature;humidity
16964;DHT22;8598;50.508;10.436;2023-06-14T00:01:11;12.00;99.90
16964;DHT22;8598;50.508;10.436;2023-06-14T00:03:39;11.80;99.90
16964;DHT22;8598;50.508;10.436;2023-06-14T00:06:06;11.60;99.90
16964;DHT22;8598;50.508;10.436;2023-06-14T00:08:32;11.60;99.90
16964;DHT22;8598;50.508;10.436;2023-06-14T00:10:59;11.80;99.90
16964;DHT22;8598;50.508;10.436;2023-06-14T00:13:26;11.30;99.90
16964;DHT22;8598;50.508;10.436;2023-06-14T00:15:54;11.20;99.90
16964;DHT22;8598;50.508;10.436;2023-06-14T00:18:20;11.30;99.90
16964;DHT22;8598;50.508;10.436;2023-06-14T00:20:49;11.20;99.90
16964;DHT22;8598;50.508;10.436;2023-06-14T00:23:16;11.10;99.90
16964;DHT22;8598;50.508;10.436;2023-06-14T00:25:43;11.00;99.90
16964;DHT22;8598;50.508;10.436;2023-06-14T00:28:09;11.10;99.90
16964;DHT22;8598;50.508;10.436;2023-06-14T00:30:36;11.00;99.90
16964;DHT22;8598;50.508;10.436;2023-06-14T00:33:04;10.90;99.90
16964;DHT22;8598;50.508;10.436;2023-06-14T00:35:31;10.70;99.90
16964;DHT22;8598;50.508;10.436;2023-06-14T00:37:58;10.60;99.90
16964;DHT22;8598;50.508;10.436;2023-06-14T00:40:24;10.60;99.90
16964;DHT22;8598;50.508;10.436;2023-06-14T00:42:51;10.50;99.90
16964;DHT22;8598;50.508;10.436;2023-06-14T00:45:18;10.50;99.90
16964;DHT22;8598;50.508;10.436;2023-06-14T00:47:45;10.40;99.90
16964;DHT22;8598;50.508;10.436;2023-06-14T00:50:14;10.30;99.90
16964;DHT22;8598;50.508;10.436;2023-06-14T00:52:40;10.30;99.90
16964;DHT22;8598;50.508;10.436;2023-06-14T00:55:08;10.30;99.90
16964;DHT22;8598;50.508;10.436;2023-06-14T00:57:35;10.10;99.90
16964;DHT22;8598;50.508;10.436;2023-06-14T01:00:04;10.00;99.90
16964;DHT22;8598;50.508;10.436;2023-06-14T01:02:34;10.00;99.90
16964;DHT22;8598;50.508;10.436;2023-06-14T01:05:02;9.90;99.90
16964;DHT22;8598;50.508;10.436;2023-06-14T01:07:36;9.80;99.90
16964;DHT22;8598;50.508;10.436;2023-06-14T01:10:16;9.60;99.90
16964;DHT22;8598;50.508;10.436;2023-06-14T01:12:52;9.60;99.90
16964;DHT22;8598;50.508;10.436;2023-06-14T01:15:23;9.80;99.90
16964;DHT22;8598;50.508;10.436;2023-06-14T01:17:50;10.20;99.90
16964;DHT22;8598;50.508;10.436;2023-06-14T01:20:21;10.60;99.90
16964;DHT22;8598;50.508;10.436;2023-06-14T01:22:52;10.90;99.90
16964;DHT22;8598;50.508;10.436;2023-06-14T01:25:19;11.00;99.90
16964;DHT22;8598;50.508;10.436;2023-06-14T01:27:49;11.10;99.90
16964;DHT22;8598;50.508;10.436;2023-06-14T01:30:17;11.10;99.90
16964;DHT22;8598;50.508;10.436;2023-06-14T01:32:45;10.80;99.90
16964;DHT22;8598;50.508;10.436;2023-06-14T01:35:12;10.60;99.90
16964;DHT22;8598;50.508;10.436;2023-06-14T01:37:40;10.50;99.90
16964;DHT22;8598;50.508;10.436;2023-06-14T01:40:10;10.40;99.90
16964;DHT22;8598;50.508;10.436;2023-06-14T01:42:38;10.20;99.90
16964;DHT22;8598;50.508;10.436;2023-06-14T01:45:06;10.20;99.90
16964;DHT22;8598;50.508;10.436;2023-06-14T01:47:34;10.60;99.90
16964;DHT22;8598;50.508;10.436;2023-06-14T01:50:02;10.80;99.90
16964;DHT22;8598;50.508;10.436;2023-06-14T01:52:29;11.00;99.90
16964;DHT22;8598;50.508;10.436;2023-06-14T01:54:56;11.00;99.90
16964;DHT22;8598;50.508;10.436;2023-06-14T01:57:25;10.90;99.90
16964;DHT22;8598;50.508;10.436;2023-06-14T01:59:52;11.00;99.90
16964;DHT22;8598;50.508;10.436;2023-06-14T02:02:19;11.10;99.90
16964;DHT22;8598;50.508;10.436;2023-06-14T02:04:46;11.00;99.90
16964;DHT22;8598;50.508;10.436;2023-06-14T02:07:13;11.00;99.90
16964;DHT22;8598;50.508;10.436;2023-06-14T02:09:40;10.90;99.90
16964;DHT22;8598;50.508;10.436;2023-06-14T02:12:07;10.90;99.90
16964;DHT22;8598;50.508;10.436;2023-06-14T02:14:35;10.90;99.90
16964;DHT22;8598;50.508;10.436;2023-06-14T02:17:04;10.90;99.90
16964;DHT22;8598;50.508;10.436;2023-06-14T02:19:31;10.90;99.90
16964;DHT22;8598;50.508;10.436;2023-06-14T02:21:58;10.80;99.90
16964;DHT22;8598;50.508;10.436;2023-06-14T02:24:25;10.80;99.90
16964;DHT22;8598;50.508;10.436;2023-06-14T02:26:52;10.70;99.90
16964;DHT22;8598;50.508;10.436;2023-06-14T02:29:18;10.60;99.90
16964;DHT22;8598;50.508;10.436;2023-06-14T02:31:47;10.60;99.90
16964;DHT22;8598;50.508;10.436;2023-06-14T02:34:15;10.70;99.90
16964;DHT22;8598;50.508;10.436;2023-06-14T02:36:42;10.80;99.90
16964;DHT22;8598;50.508;10.436;2023-06-14T02:39:08;10.80;99.90
16964;DHT22;8598;50.508;10.436;2023-06-14T02:41:36;10.80;99.90
16964;DHT22;8598;50.508;10.436;2023-06-14T02:44:02;10.70;99.90
16964;DHT22;8598;50.508;10.436;2023-06-14T02:46:29;10.50;99.90
16964;DHT22;8598;50.508;10.436;2023-06-14T02:48:57;10.60;99.90
16964;DHT22;8598;50.508;10.436;2023-06-14T02:51:24;10.90;99.90
16964;DHT22;8598;50.508;10.436;2023-06-14T02:53:51;11.10;99.90
16964;DHT22;8598;50.508;10.436;2023-06-14T02:56:17;11.20;99.90
16964;DHT22;8598;50.508;10.436;2023-06-14T02:58:44;11.30;99.90
16964;DHT22;8598;50.508;10.436;2023-06-14T03:01:11;11.40;99.90
16964;DHT22;8598;50.508;10.436;2023-06-14T03:03:38;11.30;99.90
16964;DHT22;8598;50.508;10.436;2023-06-14T03:06:06;11.30;99.90
16964;DHT22;8598;50.508;10.436;2023-06-14T03:08:33;11.30;99.90
16964;DHT22;8598;50.508;10.436;2023-06-14T03:11:04;11.50;99.90
16964;DHT22;8598;50.508;10.436;2023-06-14T03:13:31;11.70;99.90
16964;DHT22;8598;50.508;10.436;2023-06-14T03:15:58;11.90;99.90
16964;DHT22;8598;50.508;10.436;2023-06-14T03:18:27;11.80;99.90
16964;DHT22;8598;50.508;10.436;2023-06-14T03:20:54;11.60;99.90
16964;DHT22;8598;50.508;10.436;2023-06-14T03:23:23;11.20;99.90
16964;DHT22;8598;50.508;10.436;2023-06-14T03:25:50;10.70;99.90
16964;DHT22;8598;50.508;10.436;2023-06-14T03:28:17;10.60;99.90
16964;DHT22;8598;50.508;10.436;2023-06-14T03:30:44;10.60;99.90
16964;DHT22;8598;50.508;10.436;2023-06-14T03:33:11;10.60;99.90
16964;DHT22;8598;50.508;10.436;2023-06-14T03:35:37;10.90;99.90
16964;DHT22;8598;50.508;10.436;2023-06-14T03:38:04;11.00;99.90
16964;DHT22;8598;50.508;10.436;2023-06-14T03:40:32;11.10;99.90
16964;DHT22;8598;50.508;10.436;2023-06-14T03:42:58;11.10;99.90
16964;DHT22;8598;50.508;10.436;2023-06-14T03:45:25;11.20;99.90
16964;DHT22;8598;50.508;10.436;2023-06-14T03:47:52;11.30;99.90
16964;DHT22;8598;50.508;10.436;2023-06-14T03:50:20;11.30;99.90
16964;DHT22;8598;50.508;10.436;2023-06-14T03:52:47;11.30;99.90
16964;DHT22;8598;50.508;10.436;2023-06-14T03:55:15;11.30;99.90
16964;DHT22;8598;50.508;10.436;2023-06-14T03:57:43;11.20;99.90
16964;DHT22;8598;50.508;10.436;2023-06-14T04:00:11;11.20;99.90
16964;DHT22;8598;50.508;10.436;2023-06-14T04:02:38;11.10;99.90
16964;DHT22;8598;50.508;10.436;2023-06-14T04:05:05;11.00;99.90
16964;DHT22;8598;50.508;10.436;2023-06-14T04:07:34;11.00;99.90
16964;DHT22;8598;50.508;10.436;2023-06-14T04:10:06;11.00;99.90
16964;DHT22;8598;50.508;10.436;2023-06-14T04:12:33;11.10;99.90
16964;DHT22;8598;50.508;10.436;2023-06-14T04:15:01;11.10;99.90
16964;DHT22;8598;50.508;10.436;2023-06-14T04:17:28;11.20;99.90
16964;DHT22;8598;50.508;10.436;2023-06-14T04:19:55;11.10;99.90
16964;DHT22;8598;50.508;10.436;2023-06-14T04:22:24;11.10;99.90
16964;DHT22;8598;50.508;10.436;2023-06-14T04:24:54;11.10;99.90
16964;DHT22;8598;50.508;10.436;2023-06-14T04:27:22;11.20;99.90
16964;DHT22;8598;50.508;10.436;2023-06-14T04:29:51;11.30;99.90
16964;DHT22;8598;50.508;10.436;2023-06-14T04:32:23;11.40;99.90
16964;DHT22;8598;50.508;10.436;2023-06-14T04:34:50;11.40;99.90
16964;DHT22;8598;50.508;10.436;2023-06-14T04:37:19;11.50;99.90
16964;DHT22;8598;50.508;10.436;2023-06-14T04:39:46;11.70;99.90
16964;DHT22;8598;50.508;10.436;2023-06-14T04:42:13;11.70;99.90
16964;DHT22;8598;50.508;10.436;2023-06-14T04:44:41;11.90;99.90
16964;DHT22;8598;50.508;10.436;2023-06-14T04:47:08;11.90;99.90
16964;DHT22;8598;50.508;10.436;2023-06-14T04:49:36;12.10;99.90
16964;DHT22;8598;50.508;10.436;2023-06-14T04:52:04;13.30;99.90
16964;DHT22;8598;50.508;10.436;2023-06-14T04:54:31;14.70;99.90
16964;DHT22;8598;50.508;10.436;2023-06-14T04:56:59;16.20;99.90
16964;DHT22;8598;50.508;10.436;2023-06-14T04:59:25;17.20;99.90
16964;DHT22;8598;50.508;10.436;2023-06-14T05:01:52;17.90;99.90
16964;DHT22;8598;50.508;10.436;2023-06-14T05:04:19;18.20;99.90
16964;DHT22;8598;50.508;10.436;2023-06-14T05:06:48;18.30;99.90
16964;DHT22;8598;50.508;10.436;2023-06-14T05:09:15;18.90;99.90
16964;DHT22;8598;50.508;10.436;2023-06-14T05:11:42;19.30;99.90
16964;DHT22;8598;50.508;10.436;2023-06-14T05:14:10;19.60;99.90
16964;DHT22;8598;50.508;10.436;2023-06-14T05:16:37;20.00;99.90
16964;DHT22;8598;50.508;10.436;2023-06-14T05:19:04;19.80;99.90
16964;DHT22;8598;50.508;10.436;2023-06-14T05:21:31;19.40;99.90
16964;DHT22;8598;50.508;10.436;2023-06-14T05:24:00;20.00;99.90
16964;DHT22;8598;50.508;10.436;2023-06-14T05:26:27;19.90;99.90
16964;DHT22;8598;50.508;10.436;2023-06-14T05:28:54;20.10;99.90
16964;DHT22;8598;50.508;10.436;2023-06-14T05:31:21;20.10;99.90
16964;DHT22;8598;50.508;10.436;2023-06-14T05:33:48;20.60;99.90
16964;DHT22;8598;50.508;10.436;2023-06-14T05:36:15;20.70;99.90
16964;DHT22;8598;50.508;10.436;2023-06-14T05:38:41;21.30;99.90
16964;DHT22;8598;50.508;10.436;2023-06-14T05:41:09;21.60;99.90
16964;DHT22;8598;50.508;10.436;2023-06-14T05:43:36;22.00;99.90
16964;DHT22;8598;50.508;10.436;2023-06-14T05:46:03;21.90;99.90
16964;DHT22;8598;50.508;10.436;2023-06-14T05:48:30;21.40;99.90
16964;DHT22;8598;50.508;10.436;2023-06-14T05:50:57;21.30;99.90
16964;DHT22;8598;50.508;10.436;2023-06-14T05:53:24;21.10;99.90
16964;DHT22;8598;50.508;10.436;2023-06-14T05:55:50;21.10;99.90
16964;DHT22;8598;50.508;10.436;2023-06-14T05:58:20;21.00;99.90
16964;DHT22;8598;50.508;10.436;2023-06-14T06:00:47;20.80;99.90
16964;DHT22;8598;50.508;10.436;2023-06-14T06:03:14;21.20;99.90
16964;DHT22;8598;50.508;10.436;2023-06-14T06:05:40;21.90;99.90
16964;DHT22;8598;50.508;10.436;2023-06-14T06:08:07;22.30;99.90
16964;DHT22;8598;50.508;10.436;2023-06-14T06:10:33;23.40;99.90
16964;DHT22;8598;50.508;10.436;2023-06-14T06:13:00;23.70;99.90
16964;DHT22;8598;50.508;10.436;2023-06-14T06:15:28;23.20;99.90
16964;DHT22;8598;50.508;10.436;2023-06-14T06:17:55;23.50;99.90
16964;DHT22;8598;50.508;10.436;2023-06-14T06:20:22;24.30;99.90
16964;DHT22;8598;50.508;10.436;2023-06-14T06:22:53;23.80;99.90
16964;DHT22;8598;50.508;10.436;2023-06-14T06:25:19;23.80;99.90
16964;DHT22;8598;50.508;10.436;2023-06-14T06:27:47;23.70;99.90
16964;DHT22;8598;50.508;10.436;2023-06-14T06:30:14;23.50;99.90
16964;DHT22;8598;50.508;10.436;2023-06-14T06:32:42;23.20;99.90
16964;DHT22;8598;50.508;10.436;2023-06-14T06:35:09;23.70;99.90
16964;DHT22;8598;50.508;10.436;2023-06-14T06:37:36;23.30;99.90
16964;DHT22;8598;50.508;10.436;2023-06-14T06:40:03;24.30;99.90
16964;DHT22;8598;50.508;10.436;2023-06-14T06:42:31;24.10;99.90
16964;DHT22;8598;50.508;10.436;2023-06-14T06:44:57;22.80;99.90
16964;DHT22;8598;50.508;10.436;2023-06-14T06:47:24;23.50;99.90
16964;DHT22;8598;50.508;10.436;2023-06-14T06:49:52;23.70;99.90
16964;DHT22;8598;50.508;10.436;2023-06-14T06:52:19;24.00;99.90
16964;DHT22;8598;50.508;10.436;2023-06-14T06:54:45;24.40;99.90
16964;DHT22;8598;50.508;10.436;2023-06-14T06:57:12;24.50;99.90
16964;DHT22;8598;50.508;10.436;2023-06-14T06:59:39;24.60;99.90
16964;DHT22;8598;50.508;10.436;2023-06-14T07:02:06;24.70;99.30
16964;DHT22;8598;50.508;10.436;2023-06-14T07:04:33;24.60;99.90
16964;DHT22;8598;50.508;10.436;2023-06-14T07:07:00;24.50;99.90
16964;DHT22;8598;50.508;10.436;2023-06-14T07:09:27;25.10;99.10
16964;DHT22;8598;50.508;10.436;2023-06-14T07:11:54;25.10;99.00
16964;DHT22;8598;50.508;10.436;2023-06-14T07:14:21;25.30;98.70
16964;DHT22;8598;50.508;10.436;2023-06-14T07:16:48;25.60;98.40
16964;DHT22;8598;50.508;10.436;2023-06-14T07:19:15;25.00;98.20
16964;DHT22;8598;50.508;10.436;2023-06-14T07:21:42;24.90;97.60
16964;DHT22;8598;50.508;10.436;2023-06-14T07:24:10;25.00;98.60
16964;DHT22;8598;50.508;10.436;2023-06-14T07:26:37;25.00;98.20
16964;DHT22;8598;50.508;10.436;2023-06-14T07:29:03;24.90;97.40
16964;DHT22;8598;50.508;10.436;2023-06-14T07:31:30;24.60;97.30
16964;DHT22;8598;50.508;10.436;2023-06-14T07:33:57;24.30;97.80
16964;DHT22;8598;50.508;10.436;2023-06-14T07:36:23;24.70;98.70
16964;DHT22;8598;50.508;10.436;2023-06-14T07:38:50;24.80;98.80
16964;DHT22;8598;50.508;10.436;2023-06-14T07:41:18;25.70;96.90
16964;DHT22;8598;50.508;10.436;2023-06-14T07:43:45;25.40;97.00
16964;DHT22;8598;50.508;10.436;2023-06-14T07:46:11;25.10;96.70
16964;DHT22;8598;50.508;10.436;2023-06-14T07:48:38;25.00;96.80
16964;DHT22;8598;50.508;10.436;2023-06-14T07:51:04;25.00;97.60
16964;DHT22;8598;50.508;10.436;2023-06-14T07:53:31;25.40;97.40
16964;DHT22;8598;50.508;10.436;2023-06-14T07:55:58;25.80;96.30
16964;DHT22;8598;50.508;10.436;2023-06-14T07:58:26;25.90;96.10
16964;DHT22;8598;50.508;10.436;2023-06-14T08:00:53;25.80;96.70
16964;DHT22;8598;50.508;10.436;2023-06-14T08:03:20;25.80;96.20
16964;DHT22;8598;50.508;10.436;2023-06-14T08:05:47;25.20;95.30
16964;DHT22;8598;50.508;10.436;2023-06-14T08:08:14;25.20;95.30
16964;DHT22;8598;50.508;10.436;2023-06-14T08:10:41;25.10;95.40
16964;DHT22;8598;50.508;10.436;2023-06-14T08:13:08;25.10;95.70
16964;DHT22;8598;50.508;10.436;2023-06-14T08:15:36;25.60;97.00
16964;DHT22;8598;50.508;10.436;2023-06-14T08:18:03;25.70;95.40
16964;DHT22;8598;50.508;10.436;2023-06-14T08:20:30;25.80;93.70
16964;DHT22;8598;50.508;10.436;2023-06-14T08:22:57;25.40;95.20
16964;DHT22;8598;50.508;10.436;2023-06-14T08:25:24;25.50;94.60
16964;DHT22;8598;50.508;10.436;2023-06-14T08:27:51;25.90;95.00
16964;DHT22;8598;50.508;10.436;2023-06-14T08:30:18;25.90;94.80
16964;DHT22;8598;50.508;10.436;2023-06-14T08:32:46;26.30;94.10
16964;DHT22;8598;50.508;10.436;2023-06-14T08:35:12;26.20;94.50
16964;DHT22;8598;50.508;10.436;2023-06-14T08:37:39;25.90;93.10
16964;DHT22;8598;50.508;10.436;2023-06-14T08:40:17;25.30;94.20
16964;DHT22;8598;50.508;10.436;2023-06-14T08:42:47;25.20;93.50
16964;DHT22;8598;50.508;10.436;2023-06-14T08:45:14;24.60;94.80
16964;DHT22;8598;50.508;10.436;2023-06-14T08:47:40;25.20;94.70
16964;DHT22;8598;50.508;10.436;2023-06-14T08:50:09;24.90;94.00
16964;DHT22;8598;50.508;10.436;2023-06-14T08:52:38;24.80;93.00
16964;DHT22;8598;50.508;10.436;2023-06-14T08:55:11;24.30;93.40
16964;DHT22;8598;50.508;10.436;2023-06-14T08:57:39;24.10;93.20
16964;DHT22;8598;50.508;10.436;2023-06-14T09:00:07;23.30;95.40
16964;DHT22;8598;50.508;10.436;2023-06-14T09:02:37;23.60;94.60
16964;DHT22;8598;50.508;10.436;2023-06-14T09:05:10;22.90;94.80
16964;DHT22;8598;50.508;10.436;2023-06-14T09:07:39;22.80;95.40
16964;DHT22;8598;50.508;10.436;2023-06-14T09:10:08;22.70;95.90
16964;DHT22;8598;50.508;10.436;2023-06-14T09:12:35;23.00;96.00
16964;DHT22;8598;50.508;10.436;2023-06-14T09:15:02;23.20;95.70
16964;DHT22;8598;50.508;10.436;2023-06-14T09:17:32;24.00;94.40
16964;DHT22;8598;50.508;10.436;2023-06-14T09:19:59;24.20;95.20
16964;DHT22;8598;50.508;10.436;2023-06-14T09:22:29;24.40;95.80
16964;DHT22;8598;50.508;10.436;2023-06-14T09:24:56;24.00;95.80
16964;DHT22;8598;50.508;10.436;2023-06-14T09:27:22;22.90;96.50
16964;DHT22;8598;50.508;10.436;2023-06-14T09:29:49;22.50;97.00
16964;DHT22;8598;50.508;10.436;2023-06-14T09:32:15;22.20;97.30
16964;DHT22;8598;50.508;10.436;2023-06-14T09:34:42;22.20;97.60
16964;DHT22;8598;50.508;10.436;2023-06-14T09:37:09;21.80;98.50
16964;DHT22;8598;50.508;10.436;2023-06-14T09:39:49;21.70;98.20
16964;DHT22;8598;50.508;10.436;2023-06-14T09:42:16;21.90;99.40
16964;DHT22;8598;50.508;10.436;2023-06-14T09:44:45;21.60;98.90
16964;DHT22;8598;50.508;10.436;2023-06-14T09:47:15;22.00;99.90
16964;DHT22;8598;50.508;10.436;2023-06-14T09:49:42;22.40;99.40
16964;DHT22;8598;50.508;10.436;2023-06-14T09:52:10;22.60;99.90
16964;DHT22;8598;50.508;10.436;2023-06-14T09:54:41;22.40;99.20
16964;DHT22;8598;50.508;10.436;2023-06-14T09:57:09;22.40;98.90
16964;DHT22;8598;50.508;10.436;2023-06-14T09:59:40;22.70;99.90
16964;DHT22;8598;50.508;10.436;2023-06-14T10:02:11;23.20;98.30
16964;DHT22;8598;50.508;10.436;2023-06-14T10:04:42;23.00;99.00
16964;DHT22;8598;50.508;10.436;2023-06-14T10:07:13;23.10;97.30
16964;DHT22;8598;50.508;10.436;2023-06-14T10:09:42;23.10;96.00
16964;DHT22;8598;50.508;10.436;2023-06-14T10:12:14;23.30;96.20
16964;DHT22;8598;50.508;10.436;2023-06-14T10:14:47;23.60;95.20
16964;DHT22;8598;50.508;10.436;2023-06-14T10:17:22;23.60;95.20
16964;DHT22;8598;50.508;10.436;2023-06-14T10:19:54;23.50;96.40
16964;DHT22;8598;50.508;10.436;2023-06-14T10:22:24;23.60;95.00
16964;DHT22;8598;50.508;10.436;2023-06-14T10:24:53;23.50;95.50
16964;DHT22;8598;50.508;10.436;2023-06-14T10:27:20;23.60;96.90
16964;DHT22;8598;50.508;10.436;2023-06-14T10:30:08;23.40;95.80
16964;DHT22;8598;50.508;10.436;2023-06-14T10:32:35;23.40;97.00
16964;DHT22;8598;50.508;10.436;2023-06-14T10:35:05;23.40;96.80
16964;DHT22;8598;50.508;10.436;2023-06-14T10:37:32;24.10;97.40
16964;DHT22;8598;50.508;10.436;2023-06-14T10:40:00;24.40;94.90
16964;DHT22;8598;50.508;10.436;2023-06-14T10:42:28;24.70;95.80
16964;DHT22;8598;50.508;10.436;2023-06-14T10:44:55;24.30;94.90
16964;DHT22;8598;50.508;10.436;2023-06-14T10:47:27;23.20;95.80
16964;DHT22;8598;50.508;10.436;2023-06-14T10:49:55;22.70;96.20
16964;DHT22;8598;50.508;10.436;2023-06-14T10:52:25;22.70;97.90
16964;DHT22;8598;50.508;10.436;2023-06-14T10:55:05;23.20;98.20
16964;DHT22;8598;50.508;10.436;2023-06-14T10:57:34;23.50;97.90
16964;DHT22;8598;50.508;10.436;2023-06-14T11:00:03;24.20;96.40
16964;DHT22;8598;50.508;10.436;2023-06-14T11:05:49;24.40;96.10
16964;DHT22;8598;50.508;10.436;2023-06-14T11:08:59;24.40;97.10
16964;DHT22;8598;50.508;10.436;2023-06-14T11:11:33;24.50;96.80
16964;DHT22;8598;50.508;10.436;2023-06-14T11:14:01;24.50;97.00
16964;DHT22;8598;50.508;10.436;2023-06-14T11:16:28;24.00;97.00
16964;DHT22;8598;50.508;10.436;2023-06-14T11:18:57;23.50;97.20
16964;DHT22;8598;50.508;10.436;2023-06-14T11:21:24;23.70;95.10
16964;DHT22;8598;50.508;10.436;2023-06-14T11:23:56;23.70;94.60
16964;DHT22;8598;50.508;10.436;2023-06-14T11:26:26;24.20;95.20
16964;DHT22;8598;50.508;10.436;2023-06-14T11:28:57;24.50;95.00
16964;DHT22;8598;50.508;10.436;2023-06-14T11:31:24;24.20;94.60
16964;DHT22;8598;50.508;10.436;2023-06-14T11:33:53;24.00;94.20
16964;DHT22;8598;50.508;10.436;2023-06-14T11:36:20;23.60;94.30
16964;DHT22;8598;50.508;10.436;2023-06-14T11:38:47;23.30;94.60
16964;DHT22;8598;50.508;10.436;2023-06-14T11:41:13;23.00;94.40
16964;DHT22;8598;50.508;10.436;2023-06-14T11:43:40;22.80;95.70
16964;DHT22;8598;50.508;10.436;2023-06-14T11:46:14;22.90;95.70
16964;DHT22;8598;50.508;10.436;2023-06-14T11:48:42;22.60;95.40
16964;DHT22;8598;50.508;10.436;2023-06-14T11:51:10;22.80;96.00
16964;DHT22;8598;50.508;10.436;2023-06-14T11:53:37;23.30;94.60
16964;DHT22;8598;50.508;10.436;2023-06-14T11:56:04;23.50;93.60
16964;DHT22;8598;50.508;10.436;2023-06-14T11:58:31;23.50;94.50
16964;DHT22;8598;50.508;10.436;2023-06-14T12:00:58;23.80;94.80
16964;DHT22;8598;50.508;10.436;2023-06-14T12:03:26;23.90;94.30
16964;DHT22;8598;50.508;10.436;2023-06-14T12:06:02;23.30;95.10
16964;DHT22;8598;50.508;10.436;2023-06-14T12:08:33;22.60;95.00
16964;DHT22;8598;50.508;10.436;2023-06-14T12:11:04;22.30;95.30
16964;DHT22;8598;50.508;10.436;2023-06-14T12:13:31;22.90;94.90
16964;DHT22;8598;50.508;10.436;2023-06-14T12:15:57;23.40;94.90
16964;DHT22;8598;50.508;10.436;2023-06-14T12:18:33;23.40;94.00
16964;DHT22;8598;50.508;10.436;2023-06-14T12:21:01;23.40;95.20
16964;DHT22;8598;50.508;10.436;2023-06-14T12:23:39;22.80;94.10
16964;DHT22;8598;50.508;10.436;2023-06-14T12:26:05;22.60;95.20
16964;DHT22;8598;50.508;10.436;2023-06-14T12:28:33;22.60;95.60
16964;DHT22;8598;50.508;10.436;2023-06-14T12:30:59;22.60;96.50
16964;DHT22;8598;50.508;10.436;2023-06-14T12:33:26;22.90;95.60
16964;DHT22;8598;50.508;10.436;2023-06-14T12:35:56;23.50;95.50
16964;DHT22;8598;50.508;10.436;2023-06-14T12:38:23;23.40;94.90
16964;DHT22;8598;50.508;10.436;2023-06-14T12:40:50;23.50;95.80
16964;DHT22;8598;50.508;10.436;2023-06-14T12:43:17;23.10;94.10
16964;DHT22;8598;50.508;10.436;2023-06-14T12:45:44;23.00;95.30
16964;DHT22;8598;50.508;10.436;2023-06-14T12:48:11;23.30;94.40
16964;DHT22;8598;50.508;10.436;2023-06-14T12:50:37;23.20;93.70
16964;DHT22;8598;50.508;10.436;2023-06-14T12:53:05;23.10;94.30
16964;DHT22;8598;50.508;10.436;2023-06-14T12:55:32;22.80;94.50
16964;DHT22;8598;50.508;10.436;2023-06-14T12:57:59;23.20;94.10
16964;DHT22;8598;50.508;10.436;2023-06-14T13:00:26;23.30;94.30
16964;DHT22;8598;50.508;10.436;2023-06-14T13:02:52;23.90;93.90
16964;DHT22;8598;50.508;10.436;2023-06-14T13:05:19;23.90;94.00
16964;DHT22;8598;50.508;10.436;2023-06-14T13:07:46;23.80;93.90
16964;DHT22;8598;50.508;10.436;2023-06-14T13:10:14;23.70;93.50
16964;DHT22;8598;50.508;10.436;2023-06-14T13:12:40;23.70;94.00
16964;DHT22;8598;50.508;10.436;2023-06-14T13:15:07;24.20;93.40
16964;DHT22;8598;50.508;10.436;2023-06-14T13:17:34;24.70;94.10
16964;DHT22;8598;50.508;10.436;2023-06-14T13:20:04;24.70;92.60
16964;DHT22;8598;50.508;10.436;2023-06-14T13:22:32;24.60;93.40
16964;DHT22;8598;50.508;10.436;2023-06-14T13:24:58;24.60;92.00
16964;DHT22;8598;50.508;10.436;2023-06-14T13:27:27;24.60;92.70
16964;DHT22;8598;50.508;10.436;2023-06-14T13:29:54;24.10;93.80
16964;DHT22;8598;50.508;10.436;2023-06-14T13:32:22;24.00;94.20
16964;DHT22;8598;50.508;10.436;2023-06-14T13:34:49;23.80;93.60
16964;DHT22;8598;50.508;10.436;2023-06-14T13:37:16;23.60;94.70
16964;DHT22;8598;50.508;10.436;2023-06-14T13:39:42;23.30;92.70
16964;DHT22;8598;50.508;10.436;2023-06-14T13:42:09;23.30;93.60
16964;DHT22;8598;50.508;10.436;2023-06-14T13:44:38;23.50;93.10
16964;DHT22;8598;50.508;10.436;2023-06-14T13:47:05;23.70;94.00
16964;DHT22;8598;50.508;10.436;2023-06-14T13:49:32;23.90;92.00
16964;DHT22;8598;50.508;10.436;2023-06-14T13:52:00;24.20;92.40
16964;DHT22;8598;50.508;10.436;2023-06-14T13:54:27;23.90;92.00
16964;DHT22;8598;50.508;10.436;2023-06-14T13:56:54;24.00;93.40
16964;DHT22;8598;50.508;10.436;2023-06-14T13:59:20;23.80;92.50
16964;DHT22;8598;50.508;10.436;2023-06-14T14:01:48;24.00;91.50
16964;DHT22;8598;50.508;10.436;2023-06-14T14:04:15;23.90;90.10
16964;DHT22;8598;50.508;10.436;2023-06-14T14:06:42;23.80;91.60
16964;DHT22;8598;50.508;10.436;2023-06-14T14:09:08;23.70;90.10
16964;DHT22;8598;50.508;10.436;2023-06-14T14:11:35;23.70;90.90
16964;DHT22;8598;50.508;10.436;2023-06-14T14:14:02;23.60;90.20
16964;DHT22;8598;50.508;10.436;2023-06-14T14:16:30;23.70;90.50
16964;DHT22;8598;50.508;10.436;2023-06-14T14:18:58;23.80;91.40
16964;DHT22;8598;50.508;10.436;2023-06-14T14:21:24;24.40;93.00
16964;DHT22;8598;50.508;10.436;2023-06-14T14:23:51;24.50;92.00
16964;DHT22;8598;50.508;10.436;2023-06-14T14:26:18;24.50;89.90
16964;DHT22;8598;50.508;10.436;2023-06-14T14:28:46;24.20;91.80
16964;DHT22;8598;50.508;10.436;2023-06-14T14:31:12;24.30;92.60
16964;DHT22;8598;50.508;10.436;2023-06-14T14:33:39;24.20;92.60
16964;DHT22;8598;50.508;10.436;2023-06-14T14:36:07;24.20;92.10
16964;DHT22;8598;50.508;10.436;2023-06-14T14:38:34;23.70;90.90
16964;DHT22;8598;50.508;10.436;2023-06-14T14:41:00;23.70;91.10
16964;DHT22;8598;50.508;10.436;2023-06-14T14:43:27;24.00;90.90
16964;DHT22;8598;50.508;10.436;2023-06-14T14:45:56;23.80;90.80
16964;DHT22;8598;50.508;10.436;2023-06-14T14:48:22;23.00;91.80
16964;DHT22;8598;50.508;10.436;2023-06-14T14:50:49;22.80;92.50
16964;DHT22;8598;50.508;10.436;2023-06-14T14:53:17;22.80;93.80
16964;DHT22;8598;50.508;10.436;2023-06-14T14:55:44;22.80;93.60
16964;DHT22;8598;50.508;10.436;2023-06-14T14:58:12;23.00;92.90
16964;DHT22;8598;50.508;10.436;2023-06-14T15:00:42;22.70;92.50
16964;DHT22;8598;50.508;10.436;2023-06-14T15:03:09;22.70;92.60
16964;DHT22;8598;50.508;10.436;2023-06-14T15:05:35;22.90;92.80
16964;DHT22;8598;50.508;10.436;2023-06-14T15:08:02;23.00;93.10
16964;DHT22;8598;50.508;10.436;2023-06-14T15:10:32;23.00;92.80
16964;DHT22;8598;50.508;10.436;2023-06-14T15:12:58;23.10;92.60
16964;DHT22;8598;50.508;10.436;2023-06-14T15:15:25;23.30;91.80
16964;DHT22;8598;50.508;10.436;2023-06-14T15:17:52;23.30;91.80
16964;DHT22;8598;50.508;10.436;2023-06-14T15:20:19;23.50;92.00
16964;DHT22;8598;50.508;10.436;2023-06-14T15:22:45;23.60;93.50
16964;DHT22;8598;50.508;10.436;2023-06-14T15:25:12;23.80;92.40
16964;DHT22;8598;50.508;10.436;2023-06-14T15:27:40;23.70;93.00
16964;DHT22;8598;50.508;10.436;2023-06-14T15:30:07;23.60;92.30
16964;DHT22;8598;50.508;10.436;2023-06-14T15:32:34;23.40;92.60
16964;DHT22;8598;50.508;10.436;2023-06-14T15:35:01;23.20;92.60
16964;DHT22;8598;50.508;10.436;2023-06-14T15:37:27;23.30;92.40